Time;durP1;ratioP1;P1;durP2;ratioP2;P2;SDS_P1;SDS_P2;PMS_P1;PMS_P2;Temp;Humidity;BMP_temperature;BMP_pressure;BME280_temperature;BME280_humidity;BME280_pressure;Samples;Min_cycle;Max_cycle;Signal;HPM_P1;HPM_P2
2023/03/24 09:40:04;;;;;;;2.47;1.50;;;;;;;11.76;90.21;95701.28;2076544;28;20561;-61
2023/03/24 09:41:15;;;;;;;4.80;1.65;;;;;;;11.99;89.51;95698.97;2075059;28;20248;-61
2023/03/24 09:42:25;;;;;;;2.40;1.95;;;;;;;12.41;88.00;95688.38;2074394;28;20253;-60
2023/03/24 09:43:43;;;;;;;2.25;1.48;;;;;;;12.65;85.84;95688.50;2073719;28;20191;-61
2023/03/24 09:44:49;;;;;;;2.25;1.40;;;;;;;13.00;85.53;95694.88;2065807;28;20223;-59
2023/03/24 09:45:54;;;;;;;1.90;1.42;;;;;;;12.89;84.03;95698.25;2064146;28;20213;-58
2023/03/24 09:47:11;;;;;;;2.30;1.40;;;;;;;13.20;83.30;95686.47;2066633;28;20203;-58
2023/03/24 09:48:24;;;;;;;3.88;1.52;;;;;;;13.96;81.05;95706.50;2063812;28;20197;-59
2023/03/24 09:49:33;;;;;;;3.00;1.20;;;;;;;13.96;80.10;95703.88;2064637;28;20386;-59
2023/03/24 09:50:43;;;;;;;3.05;1.70;;;;;;;14.18;79.05;95714.47;2067190;28;20654;-60
2023/03/24 09:51:45;;;;;;;2.60;1.10;;;;;;;14.50;78.28;95694.59;2066600;28;20202;-59
2023/03/24 09:52:51;;;;;;;2.65;1.45;;;;;;;14.32;77.99;95695.06;2062097;28;20206;-59
2023/03/24 09:54:21;;;;;;;2.50;1.55;;;;;;;14.62;78.20;95677.91;2065149;28;20777;-59
2023/03/24 09:55:27;;;;;;;2.03;1.30;;;;;;;14.97;75.23;95684.06;2064803;28;20221;-59
2023/03/24 09:56:31;;;;;;;3.22;1.42;;;;;;;15.32;75.55;95675.22;2066629;28;20243;-59
2023/03/24 09:57:38;;;;;;;4.18;1.38;;;;;;;15.30;74.41;95687.66;2064654;28;20697;-59
2023/03/24 09:58:42;;;;;;;1.58;1.15;;;;;;;15.00;76.18;95674.16;2064764;28;20207;-60
2023/03/24 09:59:43;;;;;;;3.85;1.70;;;;;;;14.63;78.12;95687.47;2064996;28;20237;-60
2023/03/24 10:00:45;;;;;;;2.55;1.15;;;;;;;14.42;78.16;95692.56;2064908;28;20662;-60
2023/03/24 10:01:48;;;;;;;1.45;1.00;;;;;;;14.13;78.87;95689.50;2065045;28;20202;-60
2023/03/24 10:02:51;;;;;;;1.83;1.17;;;;;;;13.88;78.61;95686.06;2064309;28;20407;-60
2023/03/24 10:03:57;;;;;;;2.15;1.20;;;;;;;13.80;80.20;95691.88;2065899;28;20888;-60
2023/03/24 10:04:58;;;;;;;2.75;1.40;;;;;;;13.86;79.26;95680.06;2064744;28;20218;-60
2023/03/24 10:06:25;;;;;;;2.28;1.40;;;;;;;14.23;79.42;95689.66;2066498;28;20301;-60
2023/03/24 10:08:04;;;;;;;2.38;1.27;;;;;;;13.82;78.46;95704.88;2066430;28;20190;-62
2023/03/24 10:09:29;;;;;;;2.70;1.55;;;;;;;14.75;76.65;95679.66;2065802;28;20739;-60
2023/03/24 10:10:41;;;;;;;3.25;1.10;;;;;;;14.40;76.90;95694.47;2063843;28;20229;-60
2023/03/24 10:12:07;;;;;;;1.67;1.15;;;;;;;14.47;76.33;95703.56;2066608;28;20592;-59
2023/03/24 10:13:19;;;;;;;3.15;1.35;;;;;;;14.26;77.37;95695.50;2064904;28;20201;-60
2023/03/24 10:14:46;;;;;;;3.17;1.70;;;;;;;14.73;75.73;95684.16;2064380;28;20649;-60
2023/03/24 10:15:58;;;;;;;2.25;1.30;;;;;;;14.76;75.45;95687.41;2063736;28;20222;-60
2023/03/24 10:17:32;;;;;;;5.45;1.75;;;;;;;14.67;75.25;95693.38;2065980;28;20198;-60
2023/03/24 10:18:41;;;;;;;10.38;1.10;;;;;;;15.17;72.54;95686.00;2066426;28;20340;-60
2023/03/24 10:19:45;;;;;;;1.75;1.00;;;;;;;15.01;73.43;95696.03;2061459;28;20226;-60
2023/03/24 10:20:55;;;;;;;1.98;1.20;;;;;;;14.58;74.26;95694.06;2063106;28;20560;-59
2023/03/24 10:22:18;;;;;;;2.53;1.48;;;;;;;14.09;76.19;95707.25;2061966;28;20563;-60
2023/03/24 10:23:22;;;;;;;2.95;1.30;;;;;;;13.86;75.91;95701.06;2063645;28;20190;-60
2023/03/24 10:24:35;;;;;;;3.05;1.40;;;;;;;13.78;77.00;95685.88;2065312;28;20202;-60
2023/03/24 10:25:55;;;;;;;3.05;1.40;;;;;;;13.60;77.07;95705.56;2061961;28;20211;-60
2023/03/24 10:27:14;;;;;;;2.20;1.30;;;;;;;13.52;78.56;95696.47;2063381;28;20218;-60
2023/03/24 10:28:22;;;;;;;2.08;1.45;;;;;;;13.54;78.49;95688.50;2065567;28;20295;-60
2023/03/24 10:29:28;;;;;;;2.40;1.10;;;;;;;13.55;78.39;95701.50;2061516;28;20235;-60
2023/03/24 10:30:35;;;;;;;3.33;1.60;;;;;;;13.50;78.24;95703.63;2064704;28;20194;-60
2023/03/24 10:31:39;;;;;;;1.83;1.23;;;;;;;13.45;77.80;95697.84;2066357;28;20193;-60
2023/03/24 10:32:41;;;;;;;2.20;1.20;;;;;;;13.53;77.07;95710.41;2066288;28;20600;-60
2023/03/24 10:33:44;;;;;;;2.25;1.35;;;;;;;13.69;77.20;95713.63;2065239;28;20199;-59
2023/03/24 10:34:51;;;;;;;2.15;1.27;;;;;;;13.80;76.18;95699.75;2063587;28;20226;-59
2023/03/24 10:36:28;;;;;;;3.28;1.30;;;;;;;13.76;77.25;95706.13;2066516;28;20233;-59
2023/03/24 10:37:30;;;;;;;3.55;1.10;;;;;;;13.59;77.50;95714.41;2042810;29;20687;-59
2023/03/24 10:38:31;;;;;;;2.00;1.30;;;;;;;13.42;77.53;95707.72;2058992;28;20206;-59
2023/03/24 10:39:33;;;;;;;2.30;1.27;;;;;;;13.29;77.45;95726.06;2062890;28;20227;-59
2023/03/24 10:40:46;;;;;;;3.47;1.10;;;;;;;13.21;78.17;95713.50;2065822;28;20280;-59
2023/03/24 10:41:49;;;;;;;3.83;1.40;;;;;;;13.18;78.17;95722.44;2065604;28;20190;-59
2023/03/24 10:42:51;;;;;;;2.42;1.17;;;;;;;13.16;78.48;95737.41;2065472;28;20566;-59
2023/03/24 10:44:11;;;;;;;1.90;1.10;;;;;;;13.12;77.94;95722.84;2064087;28;20667;-59
2023/03/24 10:45:18;;;;;;;3.92;1.08;;;;;;;13.12;78.38;95725.47;2063842;28;20242;-59
2023/03/24 10:46:23;;;;;;;1.85;1.30;;;;;;;13.10;77.94;95737.00;2064664;28;20248;-59
2023/03/24 10:47:29;;;;;;;2.95;1.27;;;;;;;13.09;77.94;95736.19;2061834;28;20190;-59
2023/03/24 10:48:39;;;;;;;1.98;1.25;;;;;;;13.13;78.19;95745.50;2064302;28;20965;-59
2023/03/24 10:49:53;;;;;;;1.75;1.10;;;;;;;13.07;78.32;95744.13;2065081;28;20710;-60
2023/03/24 10:50:57;;;;;;;2.95;1.27;;;;;;;13.15;78.70;95750.63;2061862;28;20288;-60
2023/03/24 10:52:02;;;;;;;1.95;1.10;;;;;;;13.20;77.96;95735.41;2059409;28;20199;-60
2023/03/24 10:53:15;;;;;;;1.23;0.90;;;;;;;13.26;77.31;95742.03;2056956;28;20554;-59
2023/03/24 10:54:25;;;;;;;2.45;1.23;;;;;;;13.42;77.14;95737.44;2056575;28;20199;-59
2023/03/24 10:55:34;;;;;;;1.70;0.95;;;;;;;13.54;76.72;95727.84;2059644;28;20339;-59
2023/03/24 10:56:41;;;;;;;1.90;1.10;;;;;;;13.91;75.81;95740.09;2059745;28;20282;-59
2023/03/24 10:57:45;;;;;;;2.00;1.10;;;;;;;14.11;74.93;95741.28;2056565;28;20198;-59
2023/03/24 10:58:47;;;;;;;2.40;1.10;;;;;;;14.31;73.99;95735.41;2057575;28;20777;-60
2023/03/24 11:00:08;;;;;;;1.55;0.93;;;;;;;14.20;74.32;95730.09;2058409;28;20226;-60
2023/03/24 11:01:26;;;;;;;1.67;1.10;;;;;;;14.54;72.38;95743.34;2059229;28;20195;-60
2023/03/24 11:02:32;;;;;;;2.35;1.23;;;;;;;14.33;73.06;95737.91;2058906;28;20287;-59
2023/03/24 11:03:36;;;;;;;2.65;1.08;;;;;;;14.36;73.49;95733.25;2058967;28;20654;-59
2023/03/24 11:04:43;;;;;;;1.85;1.00;;;;;;;14.53;72.05;95718.84;2055947;28;20231;-59
2023/03/24 11:05:45;;;;;;;1.48;1.15;;;;;;;14.77;72.01;95727.69;2057846;28;20206;-59
2023/03/24 11:07:03;;;;;;;2.85;1.10;;;;;;;14.26;73.14;95728.78;2059133;28;20261;-59
2023/03/24 11:08:37;;;;;;;1.35;0.82;;;;;;;14.07;73.77;95727.53;2056496;28;20195;-59
2023/03/24 11:09:42;;;;;;;1.42;0.90;;;;;;;13.91;74.16;95719.94;2057090;28;20223;-59
2023/03/24 11:10:44;;;;;;;1.52;1.10;;;;;;;13.97;74.50;95734.41;2056615;28;20838;-59
2023/03/24 11:11:46;;;;;;;3.28;1.08;;;;;;;14.09;75.34;95727.44;2056762;28;20206;-59
2023/03/24 11:12:54;;;;;;;1.40;1.00;;;;;;;14.10;74.57;95734.34;2059057;28;20206;-59
2023/03/24 11:14:00;;;;;;;1.83;1.15;;;;;;;13.96;74.03;95740.59;2059596;28;20222;-59
2023/03/24 11:15:22;;;;;;;2.10;1.00;;;;;;;13.85;73.03;95744.00;2058379;28;20777;-59
2023/03/24 11:16:35;;;;;;;1.52;0.90;;;;;;;13.82;73.57;95733.72;2059704;28;20210;-59
2023/03/24 11:17:37;;;;;;;4.80;1.00;;;;;;;13.75;73.20;95733.34;2057477;28;20209;-59
2023/03/24 11:19:01;;;;;;;2.33;1.05;;;;;;;13.82;73.39;95744.22;2059783;28;20207;-59
2023/03/24 11:20:15;;;;;;;2.95;1.30;;;;;;;13.73;73.87;95729.97;2057487;28;20222;-59
2023/03/24 11:21:19;;;;;;;1.70;0.90;;;;;;;13.66;73.59;95740.09;2056962;28;20249;-59
2023/03/24 11:22:21;;;;;;;2.20;1.10;;;;;;;13.62;74.34;95738.59;2059634;28;20217;-59
2023/03/24 11:23:52;;;;;;;1.52;0.90;;;;;;;13.46;75.16;95738.88;2060244;28;20209;-59
2023/03/24 11:24:55;;;;;;;4.15;1.00;;;;;;;13.33;75.60;95732.78;2052246;28;20228;-59
2023/03/24 11:26:27;;;;;;;2.30;1.02;;;;;;;13.28;75.76;95748.84;2056066;28;20257;-59
2023/03/24 11:27:30;;;;;;;1.80;1.00;;;;;;;13.19;76.26;95734.59;2057541;28;20213;-59
2023/03/24 11:28:59;;;;;;;1.95;0.95;;;;;;;13.25;76.76;95732.50;2059095;28;20207;-59
2023/03/24 11:30:01;;;;;;;2.30;1.27;;;;;;;13.25;76.25;95732.50;2052195;28;20226;-59
2023/03/24 11:31:10;;;;;;;2.70;1.20;;;;;;;13.16;76.12;95719.06;2060375;28;20206;-61
2023/03/24 11:32:17;;;;;;;1.85;0.90;;;;;;;13.05;76.04;95745.19;2059618;28;20241;-60
2023/03/24 11:33:27;;;;;;;2.38;1.38;;;;;;;13.09;76.64;95746.66;2067172;28;20233;-60
2023/03/24 11:34:43;;;;;;;2.22;0.95;;;;;;;12.99;76.74;95743.84;2067687;28;20237;-60
2023/03/24 11:35:46;;;;;;;1.77;0.90;;;;;;;12.93;76.13;95764.38;2065512;28;20268;-60
2023/03/24 11:37:17;;;;;;;2.50;1.27;;;;;;;12.72;77.33;95741.28;2067953;28;20214;-61
2023/03/24 11:38:28;;;;;;;1.98;1.08;;;;;;;12.71;77.91;95752.75;2067456;28;20246;-60
2023/03/24 11:39:31;;;;;;;1.83;1.15;;;;;;;12.68;78.70;95758.16;2066319;28;20265;-60
2023/03/24 12:02:53;;;;;;;1.40;0.80;;;;;;;12.86;77.27;95743.84;2101919;27;20565;-61
2023/03/24 12:05:09;;;;;;;1.85;1.17;;;;;;;12.86;77.09;95751.69;2079082;28;20556;-61
2023/03/24 12:06:37;;;;;;;1.63;1.10;;;;;;;12.84;76.97;95757.97;2073321;28;20722;-61
2023/03/24 12:08:05;;;;;;;3.40;1.00;;;;;;;12.79;76.56;95753.03;2073716;28;20256;-61
2023/03/24 12:09:21;;;;;;;3.53;0.95;;;;;;;12.81;77.29;95748.56;2072474;28;20204;-61
2023/03/24 12:10:30;;;;;;;1.90;1.27;;;;;;;12.81;76.70;95734.59;2065542;28;20719;-62
2023/03/24 12:11:56;;;;;;;2.55;1.20;;;;;;;12.88;76.98;95749.78;2062782;28;20632;-62
2023/03/24 12:13:00;;;;;;;2.47;1.05;;;;;;;12.86;76.84;95749.06;2065231;28;20201;-61
2023/03/24 12:14:03;;;;;;;1.73;0.98;;;;;;;12.87;77.38;95748.13;2066153;28;20229;-62
2023/03/24 12:15:11;;;;;;;2.65;0.90;;;;;;;12.90;76.88;95740.06;2064802;28;20616;-61
2023/03/24 12:16:36;;;;;;;1.70;0.90;;;;;;;12.90;77.50;95732.19;2064690;28;20206;-62
2023/03/24 12:17:48;;;;;;;1.30;0.80;;;;;;;12.78;77.05;95724.34;2066095;28;20201;-59
2023/03/24 12:39:50;;;;;;;1.75;0.95;;;;;;;12.62;77.12;95769.91;2086317;28;20568;-60
2023/03/24 12:41:17;;;;;;;1.48;0.60;;;;;;;12.63;76.72;95771.56;2086848;28;20207;-60
2023/03/24 12:42:21;;;;;;;1.23;0.70;;;;;;;12.70;76.37;95764.97;2086016;28;20291;-60
2023/03/24 12:43:40;;;;;;;2.10;1.00;;;;;;;12.68;76.20;95764.22;2085433;28;20200;-60
2023/03/24 12:45:01;;;;;;;1.02;0.70;;;;;;;12.68;76.72;95764.22;2085487;28;20216;-60
2023/03/24 12:46:31;;;;;;;1.10;0.65;;;;;;;12.63;76.29;95768.94;2086677;28;20231;-60
2023/03/24 12:48:03;;;;;;;1.58;0.88;;;;;;;12.67;76.58;95775.69;2086333;28;20941;-59
2023/03/24 12:50:57;;;;;;;3.88;1.00;;;;;;;12.77;75.96;95752.31;2084073;28;20557;-58
2023/03/24 12:51:58;;;;;;;1.40;0.80;;;;;;;12.89;75.85;95748.03;2077471;28;20705;-58
2023/03/24 12:53:05;;;;;;;1.60;1.02;;;;;;;12.97;74.65;95750.94;2080805;28;20314;-58
2023/03/24 12:54:30;;;;;;;1.30;0.70;;;;;;;13.01;74.85;95749.78;2078775;28;20254;-58
2023/03/24 12:55:40;;;;;;;1.23;0.80;;;;;;;13.05;74.78;95753.91;2062409;28;20853;-58
2023/03/24 12:56:54;;;;;;;1.50;0.90;;;;;;;13.03;75.14;95750.53;2063126;28;20205;-59
2023/03/24 12:58:02;;;;;;;1.10;0.80;;;;;;;13.06;75.10;95749.47;2061718;28;20206;-59
2023/03/24 12:59:14;;;;;;;1.73;0.80;;;;;;;12.79;74.31;95731.25;2066746;28;20202;-59
2023/03/24 13:00:27;;;;;;;1.10;0.70;;;;;;;12.82;74.93;95744.97;2061841;28;20226;-59
2023/03/24 13:01:42;;;;;;;1.20;0.70;;;;;;;12.69;75.25;95742.34;2062524;28;20201;-59
2023/03/24 13:02:52;;;;;;;1.10;0.70;;;;;;;12.62;75.72;95746.34;2062375;28;20669;-59
2023/03/24 13:04:00;;;;;;;2.08;1.00;;;;;;;12.60;75.99;95737.72;2063345;28;20534;-59
2023/03/24 13:05:06;;;;;;;1.23;0.65;;;;;;;12.52;75.52;95746.09;2055247;28;20230;-59
2023/03/24 13:06:35;;;;;;;1.10;0.60;;;;;;;12.43;75.96;95745.88;2054008;28;20199;-59
2023/03/24 13:07:37;;;;;;;1.20;0.63;;;;;;;12.49;76.24;95748.09;2053935;28;20773;-59
2023/03/24 13:08:44;;;;;;;1.77;0.80;;;;;;;12.45;75.99;95741.38;2054032;28;20197;-59
2023/03/24 13:10:05;;;;;;;1.33;0.80;;;;;;;12.38;75.46;95733.09;2053863;28;20230;-59
2023/03/24 13:11:11;;;;;;;2.60;0.73;;;;;;;12.38;75.30;95746.19;2053721;28;20203;-59
2023/03/24 13:12:47;;;;;;;1.33;0.70;;;;;;;12.38;75.75;95751.44;2055096;28;20720;-59
2023/03/24 13:13:49;;;;;;;1.10;0.70;;;;;;;12.37;76.17;95745.34;2055281;28;20657;-59
2023/03/24 15:26:54;;;;;;;2.17;1.02;;;;;;;10.51;96.13;95752.50;2103550;27;21204;-56
2023/03/24 15:27:56;;;;;;;1.95;1.10;;;;;;;10.67;94.48;95761.09;2103447;28;20199;-56
2023/03/24 15:29:01;;;;;;;1.20;0.85;;;;;;;10.68;91.71;95749.72;2102782;28;20201;-56
2023/03/24 15:30:05;;;;;;;3.25;1.50;;;;;;;10.69;92.88;95740.97;2097297;27;20224;-58
2023/03/24 15:31:07;;;;;;;2.13;0.90;;;;;;;10.68;92.07;95733.22;2095258;28;20261;-58
2023/03/24 15:32:17;;;;;;;1.30;0.80;;;;;;;10.65;91.76;95751.69;2094731;28;20262;-58
2023/03/24 15:33:20;;;;;;;2.35;1.10;;;;;;;10.60;91.17;95750.19;2095102;28;20678;-58
2023/03/24 15:34:40;;;;;;;2.05;1.20;;;;;;;10.72;92.64;95747.78;2094604;28;20284;-57
2023/03/24 15:35:45;;;;;;;1.60;1.20;;;;;;;10.74;91.75;95748.50;2094675;28;20196;-58
2023/03/24 15:36:56;;;;;;;1.27;0.73;;;;;;;10.77;90.32;95746.56;2094086;28;20283;-58
2023/03/24 15:37:57;;;;;;;1.60;0.93;;;;;;;10.83;89.51;95741.91;2094628;28;20201;-58
2023/03/24 15:38:59;;;;;;;1.35;0.80;;;;;;;10.81;88.77;95734.16;2094628;28;20207;-58
2023/03/24 15:40:00;;;;;;;1.67;0.98;;;;;;;11.10;87.83;95740.22;2094281;28;20767;-58
2023/03/24 15:41:19;;;;;;;3.65;0.90;;;;;;;10.97;88.36;95725.41;2094915;28;20281;-58
2023/03/24 15:42:22;;;;;;;1.58;0.85;;;;;;;10.83;88.74;95726.22;2094568;28;20232;-58
2023/03/24 15:43:24;;;;;;;1.80;0.90;;;;;;;10.87;89.02;95752.09;2094767;28;20661;-58
2023/03/24 15:44:29;;;;;;;2.97;0.70;;;;;;;10.83;88.34;95752.34;2094308;28;20193;-57
2023/03/24 15:45:41;;;;;;;3.30;0.90;;;;;;;10.85;88.99;95753.94;2094495;28;20543;-58
2023/03/24 15:46:43;;;;;;;1.65;0.70;;;;;;;10.73;88.04;95736.41;2093847;28;20674;-58
2023/03/24 15:47:45;;;;;;;2.33;0.90;;;;;;;10.80;88.70;95755.16;2094402;28;20196;-57
2023/03/24 15:48:46;;;;;;;2.10;1.10;;;;;;;10.85;88.86;95753.09;2094819;28;20469;-57
2023/03/24 15:49:59;;;;;;;2.50;1.00;;;;;;;10.85;88.99;95756.56;2094271;28;20245;-58
2023/03/24 15:51:08;;;;;;;1.40;0.80;;;;;;;10.86;88.51;95760.03;2094745;28;20196;-57
2023/03/24 15:52:29;;;;;;;4.22;0.80;;;;;;;10.88;87.84;95750.31;2094012;28;20200;-57
2023/03/24 15:53:43;;;;;;;2.65;0.90;;;;;;;10.93;86.89;95751.72;2094301;28;20693;-57
2023/03/24 15:54:45;;;;;;;2.17;1.00;;;;;;;11.11;85.40;95752.38;2094033;28;20725;-57
2023/03/24 15:56:00;;;;;;;2.15;1.13;;;;;;;11.36;85.08;95752.63;2094518;28;20283;-57
2023/03/24 15:57:02;;;;;;;3.45;1.58;;;;;;;11.89;83.79;95751.00;2094232;28;20666;-57
2023/03/24 15:58:20;;;;;;;2.40;1.00;;;;;;;12.31;79.99;95745.75;2094626;28;20269;-57
2023/03/24 15:59:22;;;;;;;2.63;0.90;;;;;;;12.27;78.37;95741.66;2093542;28;20551;-58
2023/03/24 16:00:27;;;;;;;4.78;0.90;;;;;;;12.25;80.10;95744.38;2094459;28;20197;-57
2023/03/24 16:01:35;;;;;;;1.83;0.98;;;;;;;12.64;80.02;95738.38;2094205;28;20245;-59
2023/03/24 16:02:44;;;;;;;1.13;0.75;;;;;;;12.74;78.10;95742.03;2094570;28;20235;-59
2023/03/24 16:03:49;;;;;;;2.83;0.85;;;;;;;12.83;77.62;95737.97;2094295;28;20545;-59
2023/03/24 16:04:55;;;;;;;1.98;1.00;;;;;;;13.02;77.72;95751.47;2093677;28;20225;-59
2023/03/24 16:06:13;;;;;;;2.00;0.73;;;;;;;13.03;77.75;95742.66;2093668;28;20266;-60
2023/03/24 16:07:31;;;;;;;1.60;0.88;;;;;;;13.23;76.97;95746.53;2094005;28;20254;-60
2023/03/24 16:08:34;;;;;;;2.40;0.70;;;;;;;13.00;75.30;95745.50;2093944;28;20199;-60
2023/03/24 16:09:39;;;;;;;1.85;0.80;;;;;;;12.86;75.86;95749.06;2093488;28;20219;-60
2023/03/24 16:10:42;;;;;;;3.45;0.88;;;;;;;12.78;75.89;95742.69;2093712;28;20246;-59
2023/03/24 16:11:43;;;;;;;1.00;0.60;;;;;;;12.73;75.56;95738.59;2093785;28;20253;-60
2023/03/24 16:12:45;;;;;;;1.73;0.90;;;;;;;12.64;75.99;95746.22;2094136;28;20200;-60
2023/03/24 16:13:46;;;;;;;1.10;0.75;;;;;;;12.43;76.23;95741.50;2094517;28;20222;-60
2023/03/24 16:14:47;;;;;;;1.40;0.80;;;;;;;12.19;76.78;95738.69;2093121;28;20365;-60
2023/03/24 16:16:05;;;;;;;1.80;0.80;;;;;;;12.02;77.02;95732.78;2094631;28;20452;-59
2023/03/24 16:17:08;;;;;;;1.63;0.80;;;;;;;11.73;77.02;95726.78;2094196;28;20239;-59
2023/03/24 16:18:16;;;;;;;2.85;0.70;;;;;;;11.60;77.45;95740.66;2094642;28;20760;-60
2023/03/24 16:19:18;;;;;;;2.00;0.80;;;;;;;11.53;79.39;95747.19;2094004;28;20203;-60
2023/03/24 16:20:22;;;;;;;1.30;0.80;;;;;;;11.54;78.56;95748.88;2094312;28;20230;-60
2023/03/24 16:21:28;;;;;;;2.00;1.10;;;;;;;11.31;79.20;95741.63;2094498;28;20493;-60
2023/03/24 16:22:29;;;;;;;1.80;1.10;;;;;;;11.23;79.07;95752.56;2094412;28;20209;-60
2023/03/24 16:23:31;;;;;;;1.30;0.90;;;;;;;11.11;79.65;95741.09;2094544;28;20245;-60
2023/03/24 16:24:32;;;;;;;1.25;0.75;;;;;;;11.10;80.58;95744.63;2093973;28;20671;-60
2023/03/24 16:25:34;;;;;;;2.95;0.93;;;;;;;11.03;80.37;95753.75;2094504;28;20249;-60
2023/03/24 16:26:36;;;;;;;1.70;0.80;;;;;;;11.03;80.27;95745.94;2092574;28;20236;-59
2023/03/24 16:27:38;;;;;;;2.22;0.90;;;;;;;11.02;79.71;95759.91;2110552;28;20203;-59
2023/03/24 16:28:40;;;;;;;1.98;0.90;;;;;;;11.03;80.72;95751.97;2110180;28;20797;-59
2023/03/24 16:29:42;;;;;;;1.80;0.98;;;;;;;11.01;80.58;95747.78;2093993;28;20217;-59
2023/03/24 16:30:47;;;;;;;2.40;1.27;;;;;;;11.02;80.93;95733.78;2094365;28;20289;-59
2023/03/24 16:31:51;;;;;;;1.50;0.90;;;;;;;11.09;80.24;95745.56;2093467;28;20192;-59
2023/03/24 16:32:53;;;;;;;3.60;1.20;;;;;;;11.18;80.11;95749.38;2094331;28;20254;-59
2023/03/24 16:33:56;;;;;;;3.17;1.23;;;;;;;11.23;79.95;95740.31;2094234;28;20690;-60
2023/03/24 16:34:58;;;;;;;2.08;1.25;;;;;;;11.34;79.41;95736.19;2093378;28;20221;-59
2023/03/24 16:36:00;;;;;;;3.55;0.98;;;;;;;11.42;78.96;95736.56;2094437;28;20245;-60
2023/03/24 16:37:03;;;;;;;5.22;1.50;;;;;;;11.48;79.89;95738.81;2094197;28;20198;-59
2023/03/24 16:38:04;;;;;;;4.30;1.13;;;;;;;11.43;77.15;95740.88;2089104;28;20654;-59
2023/03/24 16:39:14;;;;;;;1.17;0.80;;;;;;;11.49;77.53;95750.09;2088957;28;20249;-60
2023/03/24 16:40:21;;;;;;;1.40;0.90;;;;;;;11.50;77.23;95744.75;2087570;28;20222;-59
2023/03/24 16:41:23;;;;;;;2.00;0.70;;;;;;;11.37;77.39;95723.78;2088867;28;20219;-60
2023/03/24 16:42:24;;;;;;;1.70;0.80;;;;;;;11.42;78.03;95745.25;2088896;28;20200;-60
2023/03/24 16:43:28;;;;;;;1.10;0.70;;;;;;;11.42;77.94;95740.00;2104874;28;20205;-59
2023/03/24 16:44:30;;;;;;;3.33;0.90;;;;;;;11.43;78.24;95756.56;2103043;28;20211;-59
2023/03/24 16:45:32;;;;;;;2.05;1.10;;;;;;;11.32;78.42;95741.53;2088135;28;20277;-59
2023/03/24 16:46:33;;;;;;;1.80;0.90;;;;;;;11.21;77.92;95747.44;2088015;28;20652;-59
2023/03/24 16:47:35;;;;;;;4.80;1.58;;;;;;;11.24;79.15;95749.00;2088679;28;20725;-59
2023/03/24 16:48:36;;;;;;;2.88;1.35;;;;;;;11.21;78.16;95760.50;2086779;28;20205;-59
2023/03/24 16:49:37;;;;;;;1.95;0.95;;;;;;;11.10;79.59;95750.69;2088330;28;20299;-59
2023/03/24 16:50:45;;;;;;;2.55;1.00;;;;;;;10.98;79.44;95754.03;2088672;28;20568;-59
2023/03/24 16:51:47;;;;;;;1.40;1.00;;;;;;;10.92;79.67;95762.25;2088510;28;20200;-59
2023/03/24 16:52:49;;;;;;;2.47;1.20;;;;;;;10.92;80.00;95751.81;2088708;28;20243;-59
2023/03/24 16:53:50;;;;;;;4.70;1.08;;;;;;;10.96;79.79;95753.31;2088398;28;20200;-59
2023/03/24 16:54:53;;;;;;;1.30;0.80;;;;;;;10.92;79.55;95754.44;2088100;28;20218;-59
2023/03/24 16:55:54;;;;;;;1.73;0.90;;;;;;;10.97;79.61;95751.53;2087625;28;20201;-59
2023/03/24 16:56:56;;;;;;;1.92;0.82;;;;;;;10.94;80.08;95763.84;2088839;28;20225;-59
2023/03/24 16:57:57;;;;;;;2.60;1.00;;;;;;;10.91;79.72;95744.91;2087856;28;20196;-59
2023/03/24 16:58:59;;;;;;;1.60;0.90;;;;;;;10.93;80.19;95758.69;2087832;28;20272;-59
2023/03/24 17:00:03;;;;;;;2.00;1.20;;;;;;;10.93;79.74;95756.09;2087695;28;20699;-59
2023/03/24 17:01:25;;;;;;;1.50;1.02;;;;;;;10.92;79.66;95755.25;2087979;28;20210;-59
2023/03/24 17:02:27;;;;;;;6.95;1.00;;;;;;;10.94;79.07;95749.94;2088020;28;20211;-59
2023/03/24 17:03:28;;;;;;;1.80;1.05;;;;;;;10.87;78.95;95748.63;2088657;28;20223;-59
2023/03/24 17:04:32;;;;;;;3.45;0.98;;;;;;;10.94;78.72;95749.94;2088163;28;20283;-59
2023/03/24 17:05:47;;;;;;;2.55;0.85;;;;;;;10.89;78.84;95739.78;2088718;28;20248;-59
2023/03/24 17:06:54;;;;;;;3.58;1.15;;;;;;;10.89;79.12;95754.59;2087925;28;20569;-59
2023/03/24 17:07:56;;;;;;;2.70;1.00;;;;;;;10.80;78.95;95744.72;2087970;28;20236;-59
2023/03/24 17:08:58;;;;;;;4.20;1.80;;;;;;;10.79;78.70;95733.41;2088452;28;20565;-59
2023/03/24 17:10:00;;;;;;;2.97;1.00;;;;;;;10.78;78.68;95735.19;2088183;28;20220;-59
2023/03/24 17:11:01;;;;;;;2.83;1.23;;;;;;;10.79;79.37;95733.41;2088428;28;20521;-59
2023/03/24 17:12:03;;;;;;;2.28;1.10;;;;;;;10.79;79.14;95743.84;2088319;28;20689;-59
2023/03/24 17:13:05;;;;;;;2.55;1.00;;;;;;;10.66;79.50;95737.69;2087487;28;20204;-59
2023/03/24 17:14:10;;;;;;;5.68;1.00;;;;;;;10.47;80.25;95728.34;2088653;28;20569;-61
2023/03/24 17:15:24;;;;;;;2.65;1.05;;;;;;;10.43;80.62;95738.13;2088009;28;20228;-59
2023/03/24 17:16:28;;;;;;;2.33;1.20;;;;;;;10.37;80.47;95729.81;2087605;28;20203;-59
2023/03/24 17:17:29;;;;;;;2.50;1.08;;;;;;;10.55;79.91;95741.78;2087588;28;20224;-59
2023/03/24 17:18:31;;;;;;;3.05;1.10;;;;;;;10.54;80.16;95742.72;2087899;28;20211;-59
2023/03/24 17:19:33;;;;;;;3.70;1.30;;;;;;;10.51;80.12;95749.88;2088219;28;20197;-59
2023/03/24 17:20:38;;;;;;;2.28;1.13;;;;;;;10.41;80.12;95734.78;2088533;28;20228;-59
2023/03/24 17:21:48;;;;;;;2.90;1.70;;;;;;;10.39;81.00;95743.63;2088335;28;20201;-59
2023/03/24 17:22:51;;;;;;;4.07;1.80;;;;;;;10.30;81.68;95740.56;2081962;28;20219;-59
2023/03/24 17:23:53;;;;;;;5.00;2.40;;;;;;;10.22;81.96;95737.56;2082390;28;20232;-59
2023/03/24 17:24:57;;;;;;;3.08;1.50;;;;;;;10.14;82.57;95739.78;2088144;28;20269;-60
2023/03/24 17:25:58;;;;;;;13.02;5.40;;;;;;;10.10;82.50;95738.28;2087837;28;20204;-59
